Terminal Aerodrome Forecast
Issued by NWS

Home | Current Version | Previous Version | Text Only | Print | Product List | Glossary On
Versions: 1 2 3 4 5 6 7 8 9 10 11 12 13 14 15 16 17 18 19 20 21 22 23 24 25 26 27 28 29 30 31
000
FTUS46 KOTX 072326
TAFSFF
TAF
KSFF 072326Z 0800/0824 VRB03KT P6SM BKN080 BKN120
     FM080800 00000KT 2SM BR SCT003
     FM081200 00000KT 1/2SM FZFG OVC003
     FM081700 VRB03KT 3SM BR SCT004
     FM081900 06004KT P6SM SKC=

USA.gov is the U.S. government's official web portal to all federal, state and local government web resources and services.